createdAt,value
2023-02-23T00:01:01.310Z,12.20
2023-02-23T00:04:04.080Z,11.90
2023-02-23T00:07:09.673Z,12.18
2023-02-23T00:10:13.742Z,9.98
2023-02-23T00:13:15.456Z,11.82
2023-02-23T00:16:22.525Z,11.77
2023-02-23T00:19:25.059Z,12.93
2023-02-23T00:22:27.139Z,12.10
2023-02-23T00:25:31.222Z,13.20
2023-02-23T00:28:33.178Z,13.40
2023-02-23T00:31:36.006Z,11.82
2023-02-23T00:34:37.897Z,13.75
2023-02-23T00:37:39.625Z,12.88
2023-02-23T00:40:42.447Z,13.63
2023-02-23T00:43:50.093Z,14.35
2023-02-23T00:46:52.652Z,14.05
2023-02-23T00:49:54.599Z,14.15
2023-02-23T00:52:59.688Z,14.73
2023-02-23T00:56:03.767Z,13.10
2023-02-23T00:59:05.500Z,11.30
2023-02-23T01:02:07.330Z,12.68
2023-02-23T01:05:11.136Z,12.05
2023-02-23T01:08:12.898Z,11.52
2023-02-23T01:11:17.993Z,13.00
2023-02-23T01:14:20.324Z,9.00
2023-02-23T01:17:22.261Z,12.32
2023-02-23T01:20:26.687Z,12.48
2023-02-23T01:23:29.330Z,11.48
2023-02-23T01:26:37.465Z,9.80
2023-02-23T01:29:39.220Z,10.27
2023-02-23T01:32:42.374Z,13.15
2023-02-23T01:35:44.101Z,14.80
2023-02-23T01:38:49.317Z,13.15
2023-02-23T01:41:52.569Z,10.68
2023-02-23T01:45:27.257Z,11.43
2023-02-23T01:48:37.493Z,11.18
2023-02-23T01:51:48.556Z,10.50
2023-02-23T01:54:53.589Z,12.00
2023-02-23T01:58:04.398Z,11.32
2023-02-23T02:01:07.345Z,12.02
2023-02-23T02:04:16.626Z,13.20
2023-02-23T02:07:23.841Z,12.95
2023-02-23T02:10:44.409Z,12.13
2023-02-23T02:13:46.456Z,13.70
2023-02-23T02:17:16.027Z,15.27
2023-02-23T02:20:43.022Z,15.25
2023-02-23T02:23:47.659Z,11.93
2023-02-23T02:27:13.934Z,15.02
2023-02-23T02:30:24.735Z,13.35
2023-02-23T02:33:51.322Z,13.90
2023-02-23T02:37:04.956Z,14.65
2023-02-23T02:40:53.295Z,15.90
2023-02-23T02:44:15.347Z,13.15
2023-02-23T02:47:25.564Z,14.63
2023-02-23T02:50:34.393Z,16.80
2023-02-23T02:53:47.192Z,12.90
2023-02-23T02:56:52.062Z,13.50
2023-02-23T03:00:16.472Z,13.27
2023-02-23T03:03:57.308Z,12.82
2023-02-23T03:07:24.590Z,15.13
2023-02-23T03:11:07.244Z,15.02
2023-02-23T03:14:38.154Z,13.95
2023-02-23T03:18:07.193Z,14.00
2023-02-23T03:21:40.216Z,12.65
2023-02-23T03:25:39.109Z,15.55
2023-02-23T03:29:27.005Z,14.45
2023-02-23T03:33:02.308Z,13.93
2023-02-23T03:36:32.375Z,14.27
2023-02-23T03:40:21.573Z,15.23
2023-02-23T03:43:47.079Z,14.52
2023-02-23T03:47:08.892Z,16.40
2023-02-23T03:50:39.146Z,17.70
2023-02-23T03:54:09.488Z,16.48
2023-02-23T03:57:35.265Z,15.68
2023-02-23T04:01:05.716Z,14.80
2023-02-23T04:04:28.469Z,12.98
2023-02-23T04:07:50.394Z,14.90
2023-02-23T04:11:21.185Z,14.55
2023-02-23T04:14:29.512Z,13.90
2023-02-23T04:20:33.762Z,13.20
2023-02-23T04:23:38.021Z,15.00
2023-02-23T04:26:39.820Z,16.48
2023-02-23T04:29:42.397Z,16.77
2023-02-23T04:32:46.088Z,13.85
2023-02-23T04:35:48.590Z,16.08
2023-02-23T04:38:50.394Z,16.83
2023-02-23T04:41:52.121Z,16.98
2023-02-23T04:44:53.938Z,15.85
2023-02-23T04:47:56.297Z,15.50
2023-02-23T04:50:58.095Z,16.17
2023-02-23T04:54:00.182Z,15.68
2023-02-23T04:57:02.043Z,15.32
2023-02-23T05:00:05.332Z,15.18
2023-02-23T05:03:07.479Z,14.88
2023-02-23T05:06:09.363Z,14.27
2023-02-23T05:09:11.131Z,15.13
2023-02-23T05:12:12.920Z,13.85
2023-02-23T05:15:15.095Z,14.77
2023-02-23T05:18:16.883Z,14.07
2023-02-23T05:21:18.909Z,12.80
2023-02-23T05:24:20.937Z,12.98
2023-02-23T05:27:22.749Z,14.05
2023-02-23T05:30:24.553Z,12.70
2023-02-23T05:33:26.705Z,13.88
2023-02-23T05:36:28.936Z,13.05
2023-02-23T05:39:30.742Z,14.10
2023-02-23T05:42:32.579Z,11.43
2023-02-23T05:45:34.337Z,13.27
2023-02-23T05:48:36.463Z,12.70
2023-02-23T05:51:39.575Z,13.95
2023-02-23T05:54:41.383Z,13.27
2023-02-23T05:57:43.808Z,13.93
2023-02-23T06:00:45.596Z,12.15
2023-02-23T06:03:48.441Z,14.93
2023-02-23T06:06:50.742Z,13.10
2023-02-23T06:09:52.497Z,14.10
2023-02-23T06:12:54.222Z,13.52
2023-02-23T06:15:56.090Z,12.75
2023-02-23T06:18:57.909Z,16.52
2023-02-23T06:22:00.131Z,15.45
2023-02-23T06:25:04.964Z,15.93
2023-02-23T06:28:08.670Z,15.73
2023-02-23T06:31:10.737Z,16.55
2023-02-23T06:34:12.675Z,15.32
2023-02-23T06:37:14.694Z,15.75
2023-02-23T06:40:16.751Z,14.50
2023-02-23T06:43:18.563Z,11.43
2023-02-23T06:46:21.530Z,12.77
2023-02-23T06:49:23.341Z,11.70
2023-02-23T06:52:25.852Z,11.38
2023-02-23T06:55:27.653Z,10.77
2023-02-23T06:58:30.149Z,10.63
2023-02-23T07:01:31.947Z,11.50
2023-02-23T07:04:33.959Z,9.13
2023-02-23T07:07:35.955Z,11.15
2023-02-23T07:10:37.787Z,10.75
2023-02-23T07:13:40.238Z,11.57
2023-02-23T07:16:42.024Z,10.48
2023-02-23T07:19:44.512Z,10.32
2023-02-23T07:22:46.585Z,10.70
2023-02-23T07:25:53.601Z,10.48
2023-02-23T07:28:55.268Z,8.38
2023-02-23T07:31:57.091Z,9.70
2023-02-23T07:34:58.817Z,10.00
2023-02-23T07:38:00.628Z,10.10
2023-02-23T07:41:03.641Z,7.10
2023-02-23T07:44:05.674Z,10.43
2023-02-23T07:47:07.441Z,8.57
2023-02-23T07:50:10.441Z,10.20
2023-02-23T07:53:12.387Z,11.35
2023-02-23T07:56:14.244Z,10.25
2023-02-23T07:59:16.137Z,11.27
2023-02-23T08:02:18.059Z,10.70
2023-02-23T08:05:20.639Z,8.98
2023-02-23T08:08:25.182Z,10.32
2023-02-23T08:11:31.494Z,10.57
2023-02-23T08:14:33.230Z,11.25
2023-02-23T08:17:39.320Z,11.10
2023-02-23T08:20:41.478Z,11.57
2023-02-23T08:23:46.069Z,11.00
2023-02-23T08:26:51.128Z,11.00
2023-02-23T08:29:58.185Z,11.20
2023-02-23T08:33:01.597Z,10.52
2023-02-23T08:36:03.718Z,10.35
2023-02-23T08:39:07.479Z,10.57
2023-02-23T08:42:11.955Z,10.15
2023-02-23T08:45:13.741Z,10.30
2023-02-23T08:48:15.527Z,10.48
2023-02-23T08:51:20.278Z,10.05
2023-02-23T08:54:22.191Z,8.45
2023-02-23T08:57:24.058Z,8.73
2023-02-23T09:00:25.893Z,9.18
2023-02-23T09:03:30.750Z,8.65
2023-02-23T09:06:35.284Z,9.02
2023-02-23T09:09:37.049Z,9.38
2023-02-23T09:12:38.867Z,9.00
2023-02-23T09:15:41.733Z,9.50
2023-02-23T09:18:43.632Z,8.23
2023-02-23T09:21:45.539Z,9.23
2023-02-23T09:24:47.412Z,9.10
2023-02-23T09:27:53.245Z,10.45
2023-02-23T09:30:55.082Z,8.57
2023-02-23T09:33:56.940Z,8.60
2023-02-23T09:36:58.759Z,9.02
2023-02-23T09:40:00.507Z,9.13
2023-02-23T09:43:30.723Z,9.90
2023-02-23T09:47:07.582Z,10.60
2023-02-23T09:50:17.749Z,10.60
2023-02-23T09:53:32.770Z,11.43
2023-02-23T09:56:45.421Z,12.10
2023-02-23T09:59:47.544Z,11.05
2023-02-23T10:03:08.262Z,10.52
2023-02-23T10:06:15.797Z,10.80
2023-02-23T10:09:32.917Z,8.82
2023-02-23T10:12:34.700Z,8.88
2023-02-23T10:15:48.356Z,9.18
2023-02-23T10:19:13.269Z,7.68
2023-02-23T10:22:16.499Z,8.73
2023-02-23T10:25:26.162Z,8.55
2023-02-23T10:28:33.346Z,8.07
2023-02-23T10:31:45.144Z,7.75
2023-02-23T10:34:49.567Z,7.82
2023-02-23T10:37:52.989Z,8.13
2023-02-23T10:40:56.232Z,7.50
2023-02-23T10:44:10.865Z,7.20
2023-02-23T10:47:23.331Z,7.05
2023-02-23T10:50:29.207Z,7.68
2023-02-23T10:53:36.913Z,7.85
2023-02-23T10:56:46.555Z,8.18
2023-02-23T11:00:13.567Z,7.22
2023-02-23T11:03:25.493Z,8.00
2023-02-23T11:06:30.341Z,7.50
2023-02-23T11:09:45.702Z,8.20
2023-02-23T11:12:49.883Z,7.68
2023-02-23T11:15:59.682Z,6.95
2023-02-23T11:19:04.190Z,7.07
2023-02-23T11:22:06.809Z,7.25
2023-02-23T11:25:28.082Z,7.40
2023-02-23T11:28:36.833Z,7.45
2023-02-23T11:31:40.813Z,7.68
2023-02-23T11:34:43.888Z,7.97
2023-02-23T11:37:45.955Z,8.07
2023-02-23T11:41:28.204Z,7.60
2023-02-23T11:44:29.988Z,7.55
2023-02-23T11:47:39.537Z,7.70
2023-02-23T11:50:48.575Z,7.57
2023-02-23T11:53:50.427Z,7.00
2023-02-23T11:56:55.274Z,7.93
2023-02-23T11:59:59.952Z,8.13
2023-02-23T12:03:05.584Z,8.52
2023-02-23T12:06:07.802Z,7.65
2023-02-23T12:09:32.826Z,7.88
2023-02-23T12:12:45.477Z,7.78
2023-02-23T12:16:06.185Z,8.32
2023-02-23T12:19:27.143Z,9.32
2023-02-23T12:22:53.538Z,9.32
2023-02-23T12:26:05.131Z,8.80
2023-02-23T12:29:21.618Z,9.65
2023-02-23T12:32:43.116Z,9.18
2023-02-23T12:36:29.919Z,9.27
2023-02-23T12:39:35.899Z,10.30
2023-02-23T12:42:46.759Z,9.50
2023-02-23T12:46:02.603Z,9.52
2023-02-23T12:49:17.538Z,8.50
2023-02-23T12:52:25.868Z,8.75
2023-02-23T12:55:35.117Z,8.35
2023-02-23T12:58:43.724Z,8.13
2023-02-23T13:01:59.638Z,8.50
2023-02-23T13:05:19.944Z,9.02
2023-02-23T13:08:43.473Z,8.25
2023-02-23T13:11:51.406Z,8.52
2023-02-23T13:14:58.648Z,8.10
2023-02-23T13:18:25.679Z,8.23
2023-02-23T13:21:34.906Z,8.98
2023-02-23T13:24:40.859Z,8.32
2023-02-23T13:27:50.800Z,7.35
2023-02-23T13:30:54.143Z,7.90
2023-02-23T13:33:58.733Z,8.20
2023-02-23T13:37:03.482Z,7.68
2023-02-23T13:40:37.884Z,7.32
2023-02-23T13:43:49.597Z,8.38
2023-02-23T13:47:03.759Z,7.55
2023-02-23T13:50:34.256Z,8.57
2023-02-23T13:53:41.100Z,7.95
2023-02-23T13:56:59.241Z,7.70
2023-02-23T14:00:01.307Z,8.55
2023-02-23T14:03:08.182Z,7.97
2023-02-23T14:06:14.146Z,8.88
2023-02-23T14:09:23.918Z,8.05
2023-02-23T14:13:00.489Z,8.60
2023-02-23T14:16:15.394Z,9.27
2023-02-23T14:19:38.070Z,8.25
2023-02-23T14:23:18.683Z,7.57
2023-02-23T14:26:42.503Z,7.85
2023-02-23T14:30:05.282Z,8.88
2023-02-23T14:33:37.689Z,7.53
2023-02-23T14:36:44.529Z,8.38
2023-02-23T14:39:50.326Z,8.10
2023-02-23T14:42:57.414Z,7.72
2023-02-23T14:46:05.960Z,8.38
2023-02-23T14:49:15.429Z,8.00
2023-02-23T14:52:22.534Z,8.27
2023-02-23T14:55:29.210Z,8.63
2023-02-23T14:58:35.384Z,8.52
2023-02-23T15:01:39.835Z,8.90
2023-02-23T15:04:42.218Z,8.43
2023-02-23T15:07:45.695Z,9.15
2023-02-23T15:10:50.497Z,8.95
2023-02-23T15:13:52.497Z,8.98
2023-02-23T15:16:56.677Z,9.40
2023-02-23T15:20:14.747Z,9.40
2023-02-23T15:23:20.261Z,9.40
2023-02-23T15:26:32.729Z,9.73
2023-02-23T15:29:34.465Z,9.90
2023-02-23T15:32:38.145Z,10.90
2023-02-23T15:35:49.309Z,10.15
2023-02-23T15:38:55.294Z,10.35
2023-02-23T15:41:57.082Z,10.60
2023-02-23T15:45:01.836Z,12.15
2023-02-23T15:48:08.114Z,11.80
2023-02-23T15:51:23.044Z,10.30
2023-02-23T15:54:33.068Z,11.57
2023-02-23T15:57:53.444Z,11.73
2023-02-23T16:01:06.116Z,11.80
2023-02-23T16:04:16.335Z,11.98
2023-02-23T16:07:24.401Z,13.70
2023-02-23T16:13:29.867Z,13.10
2023-02-23T16:16:35.444Z,15.77
2023-02-23T16:19:41.193Z,15.65
2023-02-23T16:22:46.175Z,15.32
2023-02-23T16:25:53.715Z,15.65
2023-02-23T16:28:59.774Z,16.75
2023-02-23T16:32:03.602Z,17.45
2023-02-23T16:35:18.011Z,17.35
2023-02-23T16:38:27.511Z,22.30
2023-02-23T16:41:31.921Z,26.75
2023-02-23T16:44:42.852Z,27.80
2023-02-23T16:47:50.047Z,28.90
2023-02-23T16:50:52.147Z,29.33
2023-02-23T16:53:53.876Z,28.23
2023-02-23T16:56:56.465Z,25.08
2023-02-23T16:59:58.831Z,27.75
2023-02-23T17:03:01.495Z,71.22
2023-02-23T17:06:03.535Z,49.22
2023-02-23T17:09:05.385Z,28.98
2023-02-23T17:12:07.303Z,20.45
2023-02-23T17:15:17.832Z,18.00
2023-02-23T17:21:31.797Z,27.90
2023-02-23T17:24:33.798Z,37.47
2023-02-23T17:27:35.690Z,33.83
2023-02-23T17:30:40.045Z,31.80
2023-02-23T17:33:42.271Z,24.98
2023-02-23T17:36:44.194Z,22.70
2023-02-23T17:39:49.716Z,29.85
2023-02-23T17:42:51.929Z,28.58
2023-02-23T17:45:54.919Z,25.25
2023-02-23T17:48:56.883Z,38.50
2023-02-23T17:51:58.687Z,37.47
2023-02-23T17:55:00.640Z,39.08
2023-02-23T17:58:02.396Z,38.28
2023-02-23T18:01:07.201Z,37.67
2023-02-23T18:04:09.587Z,33.22
2023-02-23T18:07:11.746Z,33.28
2023-02-23T18:10:14.623Z,32.08
2023-02-23T18:13:16.594Z,33.53
2023-02-23T18:16:19.278Z,31.40
2023-02-23T18:19:21.586Z,29.77
2023-02-23T18:22:23.312Z,26.77
2023-02-23T18:25:28.637Z,24.73
2023-02-23T18:28:30.826Z,23.88
2023-02-23T18:31:34.135Z,22.92
2023-02-23T18:34:36.049Z,23.95
2023-02-23T18:37:38.078Z,23.92
2023-02-23T18:40:40.486Z,24.23
2023-02-23T18:43:42.642Z,23.45
2023-02-23T18:46:46.659Z,23.80
2023-02-23T18:49:48.851Z,23.25
2023-02-23T18:52:53.632Z,22.35
2023-02-23T18:55:55.520Z,21.73
2023-02-23T18:58:59.754Z,20.85
2023-02-23T19:02:01.600Z,22.75
2023-02-23T19:05:04.119Z,21.95
2023-02-23T19:08:13.520Z,21.17
2023-02-23T19:11:15.446Z,21.40
2023-02-23T19:14:19.883Z,22.73
2023-02-23T19:17:22.663Z,22.08
2023-02-23T19:20:24.741Z,21.95
2023-02-23T19:23:26.853Z,22.27
2023-02-23T19:26:29.764Z,23.63
2023-02-23T19:29:31.770Z,23.90
2023-02-23T19:32:33.779Z,23.52
2023-02-23T19:35:39.465Z,23.67
2023-02-23T19:38:45.791Z,23.45
2023-02-23T19:41:47.928Z,23.13
2023-02-23T19:44:49.768Z,20.70
2023-02-23T19:47:53.278Z,22.08
2023-02-23T19:50:55.086Z,22.00
2023-02-23T19:53:58.036Z,21.45
2023-02-23T19:57:00.237Z,22.25
2023-02-23T20:00:02.440Z,20.90
2023-02-23T20:03:10.516Z,22.02
2023-02-23T20:06:14.111Z,21.00
2023-02-23T20:09:16.993Z,22.63
2023-02-23T20:12:18.772Z,21.25
2023-02-23T20:15:20.689Z,21.27
2023-02-23T20:18:23.287Z,18.30
2023-02-23T20:21:30.639Z,18.95
2023-02-23T20:24:38.469Z,18.92
2023-02-23T20:27:40.391Z,18.90
2023-02-23T20:30:47.348Z,19.77
2023-02-23T20:33:52.459Z,20.00
2023-02-23T20:36:55.798Z,19.70
2023-02-23T20:39:57.574Z,19.70
2023-02-23T20:42:59.977Z,20.00
2023-02-23T20:46:02.947Z,18.73
2023-02-23T20:49:11.803Z,19.42
2023-02-23T20:52:14.374Z,20.13
2023-02-23T20:55:19.247Z,19.83
2023-02-23T20:58:29.458Z,19.00
2023-02-23T21:01:34.621Z,19.65
2023-02-23T21:04:39.000Z,18.08
2023-02-23T21:07:44.266Z,18.45
2023-02-23T21:10:48.358Z,18.73
2023-02-23T21:13:56.055Z,19.30
2023-02-23T21:16:58.210Z,18.33
2023-02-23T21:20:01.823Z,19.45
2023-02-23T21:23:04.334Z,19.25
2023-02-23T21:26:16.203Z,18.88
2023-02-23T21:29:18.641Z,18.45
2023-02-23T21:32:20.376Z,18.83
2023-02-23T21:35:22.347Z,18.17
2023-02-23T21:38:25.951Z,19.50
2023-02-23T21:41:33.773Z,18.35
2023-02-23T21:44:35.721Z,18.38
2023-02-23T21:47:40.347Z,18.63
2023-02-23T21:50:42.242Z,18.40
2023-02-23T21:53:46.201Z,19.08
2023-02-23T21:56:47.969Z,18.52
2023-02-23T21:59:50.058Z,17.30
2023-02-23T22:02:51.875Z,18.40
2023-02-23T22:05:53.772Z,20.27
2023-02-23T22:08:56.337Z,19.80
2023-02-23T22:11:58.183Z,21.42
2023-02-23T22:15:04.840Z,22.85
2023-02-23T22:18:07.058Z,22.88
2023-02-23T22:21:11.697Z,23.63
2023-02-23T22:24:15.336Z,22.15
2023-02-23T22:27:17.206Z,23.45
2023-02-23T22:30:22.513Z,24.83
2023-02-23T22:33:24.373Z,24.42
2023-02-23T22:36:26.366Z,25.65
2023-02-23T22:39:33.280Z,25.90
2023-02-23T22:42:35.787Z,25.83
2023-02-23T22:45:38.686Z,26.80
2023-02-23T22:48:44.928Z,27.02
2023-02-23T22:51:46.782Z,26.85
2023-02-23T22:54:48.601Z,24.10
2023-02-23T22:57:50.345Z,24.00
2023-02-23T23:01:06.323Z,25.45
2023-02-23T23:04:11.165Z,25.88
2023-02-23T23:07:13.593Z,25.48
2023-02-23T23:10:17.685Z,24.75
2023-02-23T23:13:19.578Z,25.45
2023-02-23T23:16:31.574Z,23.10
2023-02-23T23:19:39.055Z,23.27
2023-02-23T23:22:40.941Z,22.10
2023-02-23T23:25:47.573Z,22.35
2023-02-23T23:29:00.962Z,25.48
2023-02-23T23:32:06.869Z,23.27
2023-02-23T23:35:11.182Z,22.90
2023-02-23T23:38:14.615Z,20.80
2023-02-23T23:41:18.963Z,22.35
2023-02-23T23:44:24.009Z,22.85
2023-02-23T23:47:26.860Z,22.58
2023-02-23T23:50:28.736Z,22.05
2023-02-23T23:53:33.568Z,21.27
2023-02-23T23:56:39.115Z,19.73
2023-02-23T23:59:46.311Z,20.90
